PWSweather.com
Personal Weather Stations
Station Observations
KMAMEDFI2
Medfield, MA 02052

Medfield, MA 02052

Lat: 42.1900822, Lon: -71.3296889

Elevation: 138

Station Type: Rainwise WS MK-III

http://www.medfieldweather.com

Latest ConditionsUpdated 11:10:00 PM EST Wednesday, Nov 26, 2014
Currently Today's Max Today's Min Today's Average
Temperature 32.5°F0.3°C 43.3°F6.3°C 32.5°F0.3°C 37.0°F2.8°C
Dew Point 31.2°F-0.4°C 38.2°F3.4°C 31.2°F-0.4°C 33.4°F0.8°C
Winds 5.2 mph N8.4 kmh N 11.7 mph WSW18.8 kmh WSW - 2.0 mph 3.2 kmh
Wind Gusts 4.2 mph6.8 kmh 25.2 mph40.6 kmh - -
Humidity 95% 96% 64% 87%
Pressure 29.57 in1001.4 mb 30.13 in1020.3 mb 29.57 in1001.4 mb -
Precipitation - 0.66 in16.8 mm - -
Hour Temp Dew Point Humidity Winds Wind Gusts Pressure Precip Precip Rate Daily Precip Total
11:10 PM 32.5°F0.3°C 31.2°F-0.4°C 95% 5.2 mph N8.4 kmh N 4.2 mph6.8 kmh 29.57 in1001.4 mb 0.00 in0.0 mm 0.00 in/hr0.0 mm/hr 0.66 in16.8 mm
11:00 PM 32.5°F0.3°C 31.2°F-0.4°C 95% 4.1 mph N6.6 kmh N 9.8 mph15.8 kmh 29.57 in1001.4 mb 0.00 in0.0 mm 0.00 in/hr0.0 mm/hr 0.66 in16.8 mm
10:50 PM 32.5°F0.3°C 31.2°F-0.4°C 95% 5.1 mph E8.2 kmh E 15.4 mph24.8 kmh 29.59 in1002.0 mb 0.00 in0.0 mm 0.00 in/hr0.0 mm/hr 0.66 in16.8 mm
10:40 PM 32.6°F0.3°C 31.3°F-0.4°C 95% 6.0 mph NE9.7 kmh NE 12.6 mph20.3 kmh 29.59 in1002.0 mb 0.00 in0.0 mm 0.00 in/hr0.0 mm/hr 0.66 in16.8 mm
10:30 PM 32.6°F0.3°C 31.3°F-0.4°C 95% 11.7 mph WSW18.8 kmh WSW 8.4 mph13.5 kmh 29.58 in1001.7 mb 0.00 in0.0 mm 0.00 in/hr0.0 mm/hr 0.66 in16.8 mm
10:20 PM 32.6°F0.3°C 31.3°F-0.4°C 95% 3.9 mph N6.3 kmh N 8.4 mph13.5 kmh 29.59 in1002.0 mb 0.00 in0.0 mm 0.00 in/hr0.0 mm/hr 0.66 in16.8 mm
10:10 PM 32.6°F0.3°C 31.3°F-0.4°C 95% 5.8 mph N9.3 kmh N 9.8 mph15.8 kmh 29.59 in1002.0 mb 0.00 in0.0 mm 0.00 in/hr0.0 mm/hr 0.66 in16.8 mm
10:00 PM 32.6°F0.3°C 31.3°F-0.4°C 95% 4.2 mph NNE6.8 kmh NNE 7.0 mph11.3 kmh 29.59 in1002.0 mb 0.00 in0.0 mm 0.00 in/hr0.0 mm/hr 0.66 in16.8 mm
09:50 PM 32.6°F0.3°C 31.3°F-0.4°C 95% 6.0 mph WSW9.7 kmh WSW 25.2 mph40.6 kmh 29.59 in1002.0 mb 0.00 in0.0 mm 0.00 in/hr0.0 mm/hr 0.66 in16.8 mm
09:40 PM 32.7°F0.4°C 31.4°F-0.3°C 95% 5.8 mph SE9.3 kmh SE 5.6 mph9.0 kmh 29.59 in1002.0 mb 0.00 in0.0 mm 0.00 in/hr0.0 mm/hr 0.66 in16.8 mm
09:30 PM 32.7°F0.4°C 31.4°F-0.3°C 95% 4.0 mph NNW6.4 kmh NNW 7.0 mph11.3 kmh 29.60 in1002.4 mb 0.01 in0.3 mm 0.06 in/hr1.5 mm/hr 0.66 in16.8 mm
09:20 PM 32.8°F0.4°C 31.5°F-0.3°C 95% 4.1 mph N6.6 kmh N 9.8 mph15.8 kmh 29.61 in1002.7 mb 0.00 in0.0 mm 0.00 in/hr0.0 mm/hr 0.65 in16.5 mm
09:10 PM 32.9°F0.5°C 31.6°F-0.2°C 95% 0.9 mph S1.4 kmh S 9.8 mph15.8 kmh 29.62 in1003.0 mb 0.01 in0.3 mm 0.06 in/hr1.5 mm/hr 0.65 in16.5 mm
09:00 PM 33.0°F0.6°C 31.8°F-0.1°C 95% 6.2 mph WNW10.0 kmh WNW 5.6 mph9.0 kmh 29.61 in1002.7 mb 0.01 in0.3 mm 0.01 in/hr0.3 mm/hr 0.64 in16.3 mm
08:50 PM 33.1°F0.6°C 31.8°F-0.1°C 95% 4.0 mph NNE6.4 kmh NNE 8.4 mph13.5 kmh 29.61 in1002.7 mb 0.01 in0.3 mm 0.06 in/hr1.5 mm/hr 0.63 in16.0 mm
08:40 PM 33.1°F0.6°C 31.8°F-0.1°C 95% 3.9 mph W6.3 kmh W 8.4 mph13.5 kmh 29.62 in1003.0 mb 0.01 in0.3 mm 0.06 in/hr1.5 mm/hr 0.62 in15.7 mm
08:30 PM 33.3°F0.7°C 32.0°F0.0°C 95% 4.2 mph S6.8 kmh S 9.8 mph15.8 kmh 29.64 in1003.7 mb 0.01 in0.3 mm 0.06 in/hr1.5 mm/hr 0.61 in15.5 mm
08:20 PM 33.3°F0.7°C 32.0°F0.0°C 95% 4.6 mph SW7.4 kmh SW 9.8 mph15.8 kmh 29.64 in1003.7 mb 0.01 in0.3 mm 0.06 in/hr1.5 mm/hr 0.60 in15.2 mm
08:10 PM 33.2°F0.7°C 31.9°F-0.1°C 95% 6.1 mph N9.8 kmh N 15.4 mph24.8 kmh 29.63 in1003.4 mb 0.01 in0.3 mm 0.06 in/hr1.5 mm/hr 0.59 in15.0 mm
08:00 PM 33.1°F0.6°C 31.8°F-0.1°C 95% 4.1 mph N6.6 kmh N 9.8 mph15.8 kmh 29.61 in1002.7 mb 0.02 in0.5 mm 0.02 in/hr0.5 mm/hr 0.58 in14.7 mm
07:50 PM 33.2°F0.7°C 31.9°F-0.1°C 95% 4.4 mph E7.1 kmh E 8.4 mph13.5 kmh 29.64 in1003.7 mb 0.01 in0.3 mm 0.06 in/hr1.5 mm/hr 0.56 in14.2 mm
07:40 PM 33.1°F0.6°C 31.8°F-0.1°C 95% 4.1 mph NE6.6 kmh NE 15.4 mph24.8 kmh 29.64 in1003.7 mb 0.01 in0.3 mm 0.06 in/hr1.5 mm/hr 0.55 in14.0 mm
07:30 PM 33.0°F0.6°C 31.7°F-0.2°C 95% 4.2 mph NW6.8 kmh NW 23.8 mph38.3 kmh 29.60 in1002.4 mb 0.02 in0.5 mm 0.12 in/hr3.0 mm/hr 0.55 in14.0 mm
07:20 PM 33.2°F0.7°C 31.9°F-0.1°C 95% 4.4 mph NE7.1 kmh NE 9.8 mph15.8 kmh 29.64 in1003.7 mb 0.03 in0.8 mm 0.18 in/hr4.6 mm/hr 0.53 in13.5 mm
07:10 PM 33.2°F0.7°C 31.9°F-0.1°C 95% 4.4 mph ESE7.1 kmh ESE 15.4 mph24.8 kmh 29.65 in1004.1 mb 0.03 in0.8 mm 0.18 in/hr4.6 mm/hr 0.51 in13.0 mm
07:00 PM 33.4°F0.8°C 32.1°F0.1°C 95% 3.9 mph SE6.3 kmh SE 5.6 mph9.0 kmh 29.67 in1004.7 mb 0.02 in0.5 mm 0.02 in/hr0.5 mm/hr 0.48 in12.2 mm
06:50 PM 33.3°F0.7°C 32.0°F0.0°C 95% 4.3 mph SSW6.9 kmh SSW 9.8 mph15.8 kmh 29.66 in1004.4 mb 0.03 in0.8 mm 0.18 in/hr4.6 mm/hr 0.46 in11.7 mm
06:40 PM 33.3°F0.7°C 32.0°F0.0°C 95% 4.4 mph NNW7.1 kmh NNW 9.8 mph15.8 kmh 29.68 in1005.1 mb 0.03 in0.8 mm 0.18 in/hr4.6 mm/hr 0.43 in10.9 mm
06:30 PM 33.3°F0.7°C 32.0°F0.0°C 95% 3.0 mph NE4.8 kmh NE 8.4 mph13.5 kmh 29.69 in1005.4 mb 0.03 in0.8 mm 0.18 in/hr4.6 mm/hr 0.40 in10.2 mm
06:20 PM 33.2°F0.7°C 32.0°F0.0°C 95% 4.6 mph NW7.4 kmh NW 12.6 mph20.3 kmh 29.67 in1004.7 mb 0.03 in0.8 mm 0.18 in/hr4.6 mm/hr 0.37 in9.4 mm
06:10 PM 33.2°F0.7°C 31.9°F-0.1°C 95% 7.0 mph E11.3 kmh E 12.6 mph20.3 kmh 29.73 in1006.8 mb 0.03 in0.8 mm 0.18 in/hr4.6 mm/hr 0.34 in8.6 mm
06:00 PM 33.2°F0.7°C 31.9°F-0.1°C 95% 4.0 mph N6.4 kmh N 15.4 mph24.8 kmh 29.71 in1006.1 mb 0.03 in0.8 mm 0.04 in/hr1.0 mm/hr 0.32 in8.1 mm
05:50 PM 33.1°F0.6°C 31.8°F-0.1°C 95% 1.4 mph NW2.3 kmh NW 9.8 mph15.8 kmh 29.73 in1006.8 mb 0.02 in0.5 mm 0.12 in/hr3.0 mm/hr 0.29 in7.4 mm
05:40 PM 33.1°F0.6°C 31.8°F-0.1°C 95% 2.4 mph ESE3.9 kmh ESE 2.8 mph4.5 kmh 29.75 in1007.5 mb 0.03 in0.8 mm 0.18 in/hr4.6 mm/hr 0.27 in6.9 mm
05:30 PM 32.9°F0.5°C 31.7°F-0.2°C 95% 5.6 mph N9.0 kmh N 18.2 mph29.3 kmh 29.75 in1007.5 mb 0.04 in1.0 mm 0.24 in/hr6.1 mm/hr 0.24 in6.1 mm
05:20 PM 32.9°F0.5°C 31.6°F-0.2°C 95% 3.4 mph ESE5.5 kmh ESE 8.4 mph13.5 kmh 29.77 in1008.1 mb 0.00 in0.0 mm 0.00 in/hr0.0 mm/hr 0.20 in5.1 mm
05:10 PM 32.9°F0.5°C 31.6°F-0.2°C 95% 3.0 mph NNE4.8 kmh NNE 9.8 mph15.8 kmh 29.77 in1008.1 mb 0.00 in0.0 mm 0.00 in/hr0.0 mm/hr 0.20 in5.1 mm
05:00 PM 32.8°F0.4°C 31.5°F-0.3°C 95% 6.9 mph NE11.1 kmh NE 9.8 mph15.8 kmh 29.79 in1008.8 mb 0.00 in0.0 mm 0.00 in/hr0.0 mm/hr 0.20 in5.1 mm
04:50 PM 32.7°F0.4°C 31.4°F-0.3°C 95% 2.7 mph E4.3 kmh E 5.6 mph9.0 kmh 29.79 in1008.8 mb 0.00 in0.0 mm 0.00 in/hr0.0 mm/hr 0.20 in5.1 mm
04:40 PM 32.7°F0.4°C 31.4°F-0.3°C 95% 3.5 mph ESE5.6 kmh ESE 11.2 mph18.0 kmh 29.79 in1008.8 mb 0.00 in0.0 mm 0.00 in/hr0.0 mm/hr 0.20 in5.1 mm
04:30 PM 32.6°F0.3°C 31.3°F-0.4°C 95% 3.2 mph ENE5.1 kmh ENE 9.8 mph15.8 kmh 29.80 in1009.1 mb 0.00 in0.0 mm 0.00 in/hr0.0 mm/hr 0.20 in5.1 mm
04:20 PM 32.6°F0.3°C 31.3°F-0.4°C 95% 2.7 mph SE4.3 kmh SE 2.8 mph4.5 kmh 29.81 in1009.5 mb 0.00 in0.0 mm 0.00 in/hr0.0 mm/hr 0.20 in5.1 mm
04:10 PM 32.6°F0.3°C 31.3°F-0.4°C 95% 2.3 mph N3.7 kmh N 2.8 mph4.5 kmh 29.83 in1010.2 mb 0.00 in0.0 mm 0.00 in/hr0.0 mm/hr 0.20 in5.1 mm
04:00 PM 32.6°F0.3°C 31.3°F-0.4°C 95% 3.1 mph NNE5.0 kmh NNE 8.4 mph13.5 kmh 29.84 in1010.5 mb 0.00 in0.0 mm 0.00 in/hr0.0 mm/hr 0.20 in5.1 mm
03:50 PM 32.6°F0.3°C 31.3°F-0.4°C 95% 3.4 mph N5.5 kmh N 8.4 mph13.5 kmh 29.83 in1010.2 mb 0.00 in0.0 mm 0.00 in/hr0.0 mm/hr 0.20 in5.1 mm
03:40 PM 32.6°F0.3°C 31.3°F-0.4°C 95% 3.2 mph SE5.1 kmh SE 5.6 mph9.0 kmh 29.81 in1009.5 mb 0.00 in0.0 mm 0.00 in/hr0.0 mm/hr 0.20 in5.1 mm
03:30 PM 32.5°F0.3°C 31.2°F-0.4°C 95% 3.8 mph N6.1 kmh N 2.8 mph4.5 kmh 29.85 in1010.8 mb 0.00 in0.0 mm 0.00 in/hr0.0 mm/hr 0.20 in5.1 mm
03:20 PM 32.5°F0.3°C 31.2°F-0.4°C 95% 2.7 mph E4.3 kmh E 4.2 mph6.8 kmh 29.88 in1011.9 mb 0.00 in0.0 mm 0.00 in/hr0.0 mm/hr 0.20 in5.1 mm
03:10 PM 32.5°F0.3°C 31.2°F-0.4°C 95% 3.0 mph NNW4.8 kmh NNW 4.2 mph6.8 kmh 29.89 in1012.2 mb 0.00 in0.0 mm 0.00 in/hr0.0 mm/hr 0.20 in5.1 mm
03:00 PM 32.5°F0.3°C 31.3°F-0.4°C 95% 1.3 mph E2.1 kmh E 5.6 mph9.0 kmh 29.93 in1013.5 mb 0.00 in0.0 mm 0.00 in/hr0.0 mm/hr 0.20 in5.1 mm
02:50 PM 32.6°F0.3°C 31.3°F-0.4°C 95% 1.1 mph WNW1.8 kmh WNW 4.2 mph6.8 kmh 29.92 in1013.2 mb 0.00 in0.0 mm 0.00 in/hr0.0 mm/hr 0.20 in5.1 mm
02:40 PM 32.6°F0.3°C 31.3°F-0.4°C 95% 1.5 mph NW2.4 kmh NW 2.8 mph4.5 kmh 29.93 in1013.5 mb 0.00 in0.0 mm 0.00 in/hr0.0 mm/hr 0.20 in5.1 mm
02:30 PM 32.6°F0.3°C 31.3°F-0.4°C 95% 2.9 mph NW4.7 kmh NW 5.6 mph9.0 kmh 29.94 in1013.9 mb 0.00 in0.0 mm 0.00 in/hr0.0 mm/hr 0.20 in5.1 mm
02:20 PM 32.7°F0.4°C 31.4°F-0.3°C 95% 2.0 mph NNW3.2 kmh NNW 2.8 mph4.5 kmh 29.96 in1014.6 mb 0.00 in0.0 mm 0.00 in/hr0.0 mm/hr 0.20 in5.1 mm
02:10 PM 32.7°F0.4°C 31.4°F-0.3°C 95% 1.4 mph N2.3 kmh N 2.8 mph4.5 kmh 29.95 in1014.2 mb 0.00 in0.0 mm 0.00 in/hr0.0 mm/hr 0.20 in5.1 mm
02:00 PM 32.7°F0.4°C 31.4°F-0.3°C 95% 1.7 mph NW2.7 kmh NW 4.2 mph6.8 kmh 29.95 in1014.2 mb 0.00 in0.0 mm 0.00 in/hr0.0 mm/hr 0.20 in5.1 mm
01:50 PM 32.7°F0.4°C 31.4°F-0.3°C 95% 0.5 mph N0.8 kmh N 2.8 mph4.5 kmh 29.94 in1013.9 mb 0.00 in0.0 mm 0.00 in/hr0.0 mm/hr 0.20 in5.1 mm
01:40 PM 32.6°F0.3°C 31.4°F-0.3°C 95% 1.3 mph NW2.1 kmh NW 4.2 mph6.8 kmh 29.94 in1013.9 mb 0.00 in0.0 mm 0.00 in/hr0.0 mm/hr 0.20 in5.1 mm
01:30 PM 32.6°F0.3°C 31.3°F-0.4°C 95% 2.9 mph NE4.7 kmh NE 2.8 mph4.5 kmh 29.95 in1014.2 mb 0.00 in0.0 mm 0.00 in/hr0.0 mm/hr 0.20 in5.1 mm
01:20 PM 32.6°F0.3°C 31.3°F-0.4°C 95% 2.2 mph N3.5 kmh N 2.8 mph4.5 kmh 29.96 in1014.6 mb 0.00 in0.0 mm 0.00 in/hr0.0 mm/hr 0.20 in5.1 mm
01:10 PM 32.7°F0.4°C 31.4°F-0.3°C 95% 0.9 mph NW1.4 kmh NW 2.8 mph4.5 kmh 29.97 in1014.9 mb 0.00 in0.0 mm 0.00 in/hr0.0 mm/hr 0.20 in5.1 mm
01:00 PM 32.7°F0.4°C 31.4°F-0.3°C 95% 1.8 mph SSW2.9 kmh SSW 2.8 mph4.5 kmh 29.95 in1014.2 mb 0.00 in0.0 mm 0.00 in/hr0.0 mm/hr 0.20 in5.1 mm
12:50 PM 32.7°F0.4°C 31.4°F-0.3°C 95% Calm Calm 2.8 mph4.5 kmh 29.96 in1014.6 mb 0.00 in0.0 mm 0.00 in/hr0.0 mm/hr 0.20 in5.1 mm
12:40 PM 32.7°F0.4°C 31.5°F-0.3°C 95% 2.6 mph N4.2 kmh N 2.8 mph4.5 kmh 29.98 in1015.2 mb 0.00 in0.0 mm 0.00 in/hr0.0 mm/hr 0.20 in5.1 mm
12:30 PM 32.9°F0.5°C 31.6°F-0.2°C 95% 0.7 mph ESE1.1 kmh ESE 1.4 mph2.3 kmh 29.99 in1015.6 mb 0.00 in0.0 mm 0.00 in/hr0.0 mm/hr 0.20 in5.1 mm
12:20 PM 33.1°F0.6°C 31.8°F-0.1°C 95% 0.6 mph SE1.0 kmh SE 2.8 mph4.5 kmh 30.01 in1016.3 mb 0.00 in0.0 mm 0.00 in/hr0.0 mm/hr 0.20 in5.1 mm
12:10 PM 33.5°F0.8°C 32.2°F0.1°C 95% 1.2 mph S1.9 kmh S 2.8 mph4.5 kmh 30.02 in1016.6 mb 0.00 in0.0 mm 0.00 in/hr0.0 mm/hr 0.20 in5.1 mm
12:00 PM 33.8°F1.0°C 32.5°F0.3°C 95% Calm Calm -- 30.04 in1017.3 mb 0.00 in0.0 mm 0.00 in/hr0.0 mm/hr 0.20 in5.1 mm
11:50 AM 34.2°F1.2°C 33.0°F0.6°C 95% 1.3 mph W2.1 kmh W 4.2 mph6.8 kmh 30.05 in1017.6 mb 0.01 in0.3 mm 0.06 in/hr1.5 mm/hr 0.20 in5.1 mm
11:40 AM 34.7°F1.5°C 33.4°F0.8°C 95% 2.2 mph N3.5 kmh N 5.6 mph9.0 kmh 30.03 in1016.9 mb 0.01 in0.3 mm 0.06 in/hr1.5 mm/hr 0.19 in4.8 mm
11:30 AM 35.1°F1.7°C 33.8°F1.0°C 95% 0.2 mph S0.3 kmh S 2.8 mph4.5 kmh 30.03 in1016.9 mb 0.02 in0.5 mm 0.12 in/hr3.0 mm/hr 0.18 in4.6 mm
11:20 AM 35.7°F2.1°C 34.4°F1.3°C 95% 1.1 mph S1.8 kmh S 2.8 mph4.5 kmh 30.05 in1017.6 mb 0.01 in0.3 mm 0.06 in/hr1.5 mm/hr 0.16 in4.1 mm
11:10 AM 36.4°F2.4°C 35.1°F1.7°C 95% 1.1 mph NE1.8 kmh NE 2.8 mph4.5 kmh 30.05 in1017.6 mb 0.03 in0.8 mm 0.18 in/hr4.6 mm/hr 0.15 in3.8 mm
11:00 AM 37.2°F2.9°C 35.9°F2.2°C 95% 1.3 mph WNW2.1 kmh WNW 2.8 mph4.5 kmh 30.10 in1019.3 mb 0.02 in0.5 mm 0.02 in/hr0.5 mm/hr 0.12 in3.0 mm
10:50 AM 37.6°F3.1°C 36.3°F2.4°C 95% 1.2 mph SSE1.9 kmh SSE 2.8 mph4.5 kmh 30.07 in1018.3 mb 0.02 in0.5 mm 0.12 in/hr3.0 mm/hr 0.11 in2.8 mm
10:40 AM 37.9°F3.3°C 36.6°F2.6°C 95% 2.2 mph N3.5 kmh N 2.8 mph4.5 kmh 30.06 in1017.9 mb 0.02 in0.5 mm 0.12 in/hr3.0 mm/hr 0.09 in2.3 mm
10:30 AM 38.2°F3.4°C 37.1°F2.8°C 96% 1.7 mph SE2.7 kmh SE 4.2 mph6.8 kmh 30.05 in1017.6 mb 0.01 in0.3 mm 0.06 in/hr1.5 mm/hr 0.07 in1.8 mm
10:20 AM 38.2°F3.4°C 37.2°F2.9°C 96% 1.5 mph E2.4 kmh E 2.8 mph4.5 kmh 30.06 in1017.9 mb 0.01 in0.3 mm 0.06 in/hr1.5 mm/hr 0.06 in1.5 mm
10:10 AM 38.3°F3.5°C 37.2°F2.9°C 96% Calm Calm 1.4 mph2.3 kmh 30.06 in1017.9 mb 0.02 in0.5 mm 0.12 in/hr3.0 mm/hr 0.06 in1.5 mm
10:00 AM 38.3°F3.5°C 37.3°F2.9°C 96% Calm Calm -- 30.07 in1018.3 mb 0.00 in0.0 mm 0.00 in/hr0.0 mm/hr 0.04 in1.0 mm
09:50 AM 38.4°F3.6°C 37.3°F2.9°C 96% 2.5 mph SE4.0 kmh SE 2.8 mph4.5 kmh 30.07 in1018.3 mb 0.01 in0.3 mm 0.06 in/hr1.5 mm/hr 0.04 in1.0 mm
09:40 AM 38.7°F3.7°C 37.6°F3.1°C 96% 0.2 mph E0.3 kmh E 1.4 mph2.3 kmh 30.08 in1018.6 mb 0.01 in0.3 mm 0.06 in/hr1.5 mm/hr 0.03 in0.8 mm
09:30 AM 38.9°F3.8°C 37.9°F3.3°C 96% 1.5 mph NE2.4 kmh NE 2.8 mph4.5 kmh 30.09 in1019.0 mb 0.00 in0.0 mm 0.00 in/hr0.0 mm/hr 0.02 in0.5 mm
09:20 AM 39.2°F4.0°C 38.2°F3.4°C 96% 1.6 mph E2.6 kmh E 5.6 mph9.0 kmh 30.09 in1019.0 mb 0.01 in0.3 mm 0.06 in/hr1.5 mm/hr 0.02 in0.5 mm
09:10 AM 39.7°F4.3°C 38.2°F3.4°C 94% 0.2 mph N0.3 kmh N 2.8 mph4.5 kmh 30.11 in1019.6 mb 0.01 in0.3 mm 0.06 in/hr1.5 mm/hr 0.01 in0.3 mm
09:00 AM 40.3°F4.6°C 37.3°F2.9°C 89% 2.1 mph WNW3.4 kmh WNW 2.8 mph4.5 kmh 30.12 in1020.0 mb 0.00 in0.0 mm 0.00 in/hr0.0 mm/hr 0.00 in0.0 mm
08:50 AM 40.9°F4.9°C 37.1°F2.8°C 86% 0.7 mph NNE1.1 kmh NNE 5.6 mph9.0 kmh 30.11 in1019.6 mb 0.00 in0.0 mm 0.00 in/hr0.0 mm/hr 0.00 in0.0 mm
08:40 AM 41.6°F5.3°C 35.6°F2.0°C 79% 0.1 mph WNW0.2 kmh WNW -- 30.12 in1020.0 mb 0.00 in0.0 mm 0.00 in/hr0.0 mm/hr 0.00 in0.0 mm
08:30 AM 41.7°F5.4°C 34.3°F1.3°C 75% 1.0 mph WNW1.6 kmh WNW 2.8 mph4.5 kmh 30.12 in1020.0 mb 0.00 in0.0 mm 0.00 in/hr0.0 mm/hr 0.00 in0.0 mm
08:20 AM 41.8°F5.4°C 35.8°F2.1°C 79% 0.1 mph NNE0.2 kmh NNE -- 30.11 in1019.6 mb 0.00 in0.0 mm 0.00 in/hr0.0 mm/hr 0.00 in0.0 mm
08:10 AM 41.7°F5.4°C 34.7°F1.5°C 76% 1.0 mph WNW1.6 kmh WNW 2.8 mph4.5 kmh 30.10 in1019.3 mb 0.00 in0.0 mm 0.00 in/hr0.0 mm/hr 0.00 in0.0 mm
08:00 AM 41.8°F5.4°C 35.5°F1.9°C 78% Calm Calm -- 30.10 in1019.3 mb 0.00 in0.0 mm 0.00 in/hr0.0 mm/hr 0.00 in0.0 mm
07:50 AM 42.1°F5.6°C 35.4°F1.9°C 77% Calm Calm -- 30.09 in1019.0 mb 0.00 in0.0 mm 0.00 in/hr0.0 mm/hr 0.00 in0.0 mm
07:40 AM 41.9°F5.5°C 33.9°F1.1°C 73% Calm Calm -- 30.10 in1019.3 mb 0.00 in0.0 mm 0.00 in/hr0.0 mm/hr 0.00 in0.0 mm
07:30 AM 41.8°F5.4°C 34.8°F1.6°C 76% 0.7 mph SW1.1 kmh SW 2.8 mph4.5 kmh 30.09 in1019.0 mb 0.00 in0.0 mm 0.00 in/hr0.0 mm/hr 0.00 in0.0 mm
07:20 AM 42.2°F5.7°C 33.5°F0.8°C 71% Calm Calm -- 30.10 in1019.3 mb 0.00 in0.0 mm 0.00 in/hr0.0 mm/hr 0.00 in0.0 mm
07:10 AM 42.7°F5.9°C 33.2°F0.7°C 69% 0.9 mph SW1.4 kmh SW -- 30.10 in1019.3 mb 0.00 in0.0 mm 0.00 in/hr0.0 mm/hr 0.00 in0.0 mm
07:00 AM 42.9°F6.1°C 32.6°F0.3°C 67% 1.4 mph SW2.3 kmh SW 1.4 mph2.3 kmh 30.10 in1019.3 mb 0.00 in0.0 mm 0.00 in/hr0.0 mm/hr 0.00 in0.0 mm
06:50 AM 42.9°F6.1°C 32.3°F0.2°C 66% Calm Calm -- 30.09 in1019.0 mb 0.00 in0.0 mm 0.00 in/hr0.0 mm/hr 0.00 in0.0 mm
06:40 AM 43.2°F6.2°C 32.2°F0.1°C 65% 2.8 mph WNW4.5 kmh WNW 2.8 mph4.5 kmh 30.09 in1019.0 mb 0.00 in0.0 mm 0.00 in/hr0.0 mm/hr 0.00 in0.0 mm
06:30 AM 43.3°F6.3°C 32.7°F0.4°C 66% 2.6 mph E4.2 kmh E 2.8 mph4.5 kmh 30.09 in1019.0 mb 0.00 in0.0 mm 0.00 in/hr0.0 mm/hr 0.00 in0.0 mm
06:20 AM 43.3°F6.3°C 31.9°F-0.1°C 64% 2.0 mph WNW3.2 kmh WNW 4.2 mph6.8 kmh 30.10 in1019.3 mb 0.00 in0.0 mm 0.00 in/hr0.0 mm/hr 0.00 in0.0 mm
06:10 AM 43.3°F6.3°C 32.3°F0.2°C 65% 2.5 mph NW4.0 kmh NW 2.8 mph4.5 kmh 30.10 in1019.3 mb 0.00 in0.0 mm 0.00 in/hr0.0 mm/hr 0.00 in0.0 mm
06:00 AM 43.3°F6.3°C 32.7°F0.4°C 66% 2.3 mph NW3.7 kmh NW 5.6 mph9.0 kmh 30.10 in1019.3 mb 0.00 in0.0 mm 0.00 in/hr0.0 mm/hr 0.00 in0.0 mm
05:50 AM 43.1°F6.2°C 33.3°F0.7°C 68% 1.2 mph WSW1.9 kmh WSW 2.8 mph4.5 kmh 30.09 in1019.0 mb 0.00 in0.0 mm 0.00 in/hr0.0 mm/hr 0.00 in0.0 mm
05:40 AM 42.8°F6.0°C 32.6°F0.3°C 67% 1.9 mph NNW3.1 kmh NNW 2.8 mph4.5 kmh 30.10 in1019.3 mb 0.00 in0.0 mm 0.00 in/hr0.0 mm/hr 0.00 in0.0 mm
05:30 AM 42.2°F5.7°C 35.9°F2.2°C 78% 0.1 mph S0.2 kmh S -- 30.09 in1019.0 mb 0.00 in0.0 mm 0.00 in/hr0.0 mm/hr 0.00 in0.0 mm
05:20 AM 42.3°F5.7°C 36.3°F2.4°C 79% 0.1 mph NW0.2 kmh NW 2.8 mph4.5 kmh 30.10 in1019.3 mb 0.00 in0.0 mm 0.00 in/hr0.0 mm/hr 0.00 in0.0 mm
05:10 AM 42.1°F5.6°C 35.1°F1.7°C 76% 0.7 mph W1.1 kmh W 2.8 mph4.5 kmh 30.10 in1019.3 mb 0.00 in0.0 mm 0.00 in/hr0.0 mm/hr 0.00 in0.0 mm
05:00 AM 42.0°F5.6°C 34.0°F1.1°C 73% Calm Calm 1.4 mph2.3 kmh 30.11 in1019.6 mb 0.00 in0.0 mm 0.00 in/hr0.0 mm/hr 0.00 in0.0 mm
04:50 AM 41.9°F5.5°C 34.9°F1.6°C 76% 0.1 mph SW0.2 kmh SW 1.4 mph2.3 kmh 30.12 in1020.0 mb 0.00 in0.0 mm 0.00 in/hr0.0 mm/hr 0.00 in0.0 mm
04:40 AM 41.6°F5.3°C 35.6°F2.0°C 79% Calm Calm 1.4 mph2.3 kmh 30.12 in1020.0 mb 0.00 in0.0 mm 0.00 in/hr0.0 mm/hr 0.00 in0.0 mm
04:30 AM 41.2°F5.1°C 35.5°F1.9°C 80% 0.4 mph SW0.6 kmh SW 1.4 mph2.3 kmh 30.12 in1020.0 mb 0.00 in0.0 mm 0.00 in/hr0.0 mm/hr 0.00 in0.0 mm
04:20 AM 40.9°F4.9°C 35.8°F2.1°C 82% Calm Calm -- 30.12 in1020.0 mb 0.00 in0.0 mm 0.00 in/hr0.0 mm/hr 0.00 in0.0 mm
04:10 AM 41.1°F5.1°C 36.0°F2.2°C 82% Calm Calm -- 30.12 in1020.0 mb 0.00 in0.0 mm 0.00 in/hr0.0 mm/hr 0.00 in0.0 mm
04:00 AM 41.4°F5.2°C 36.3°F2.4°C 82% Calm Calm -- 30.13 in1020.3 mb 0.00 in0.0 mm 0.00 in/hr0.0 mm/hr 0.00 in0.0 mm
03:50 AM 41.5°F5.3°C 36.1°F2.3°C 81% Calm Calm -- 30.13 in1020.3 mb 0.00 in0.0 mm 0.00 in/hr0.0 mm/hr 0.00 in0.0 mm
03:40 AM 41.4°F5.2°C 35.1°F1.7°C 78% 0.4 mph SW0.6 kmh SW -- 30.12 in1020.0 mb 0.00 in0.0 mm 0.00 in/hr0.0 mm/hr 0.00 in0.0 mm
03:30 AM 41.4°F5.2°C 36.0°F2.2°C 81% Calm Calm -- 30.12 in1020.0 mb 0.00 in0.0 mm 0.00 in/hr0.0 mm/hr 0.00 in0.0 mm
03:20 AM 41.6°F5.3°C 37.1°F2.8°C 84% Calm Calm -- 30.11 in1019.6 mb 0.00 in0.0 mm 0.00 in/hr0.0 mm/hr 0.00 in0.0 mm
03:10 AM 41.6°F5.3°C 35.2°F1.8°C 78% Calm Calm -- 30.11 in1019.6 mb 0.00 in0.0 mm 0.00 in/hr0.0 mm/hr 0.00 in0.0 mm
03:00 AM 41.5°F5.3°C 35.2°F1.8°C 78% Calm Calm -- 30.11 in1019.6 mb 0.00 in0.0 mm 0.00 in/hr0.0 mm/hr 0.00 in0.0 mm
02:50 AM 41.6°F5.3°C 35.2°F1.8°C 78% Calm Calm -- 30.10 in1019.3 mb 0.00 in0.0 mm 0.00 in/hr0.0 mm/hr 0.00 in0.0 mm
02:40 AM 41.4°F5.2°C 36.3°F2.4°C 82% Calm Calm -- 30.10 in1019.3 mb 0.00 in0.0 mm 0.00 in/hr0.0 mm/hr 0.00 in0.0 mm
02:30 AM 41.7°F5.4°C 36.6°F2.6°C 82% Calm Calm -- 30.10 in1019.3 mb 0.00 in0.0 mm 0.00 in/hr0.0 mm/hr 0.00 in0.0 mm
02:20 AM 41.8°F5.4°C 37.0°F2.8°C 83% Calm Calm -- 30.09 in1019.0 mb 0.00 in0.0 mm 0.00 in/hr0.0 mm/hr 0.00 in0.0 mm
02:10 AM 41.9°F5.5°C 35.9°F2.2°C 79% Calm Calm -- 30.09 in1019.0 mb 0.00 in0.0 mm 0.00 in/hr0.0 mm/hr 0.00 in0.0 mm
02:00 AM 41.8°F5.4°C 35.4°F1.9°C 78% Calm Calm -- 30.08 in1018.6 mb 0.00 in0.0 mm 0.00 in/hr0.0 mm/hr 0.00 in0.0 mm
01:50 AM 42.1°F5.6°C 37.3°F2.9°C 83% Calm Calm -- 30.09 in1019.0 mb 0.00 in0.0 mm 0.00 in/hr0.0 mm/hr 0.00 in0.0 mm
01:40 AM 41.8°F5.4°C 33.8°F1.0°C 73% Calm Calm -- 30.09 in1019.0 mb 0.00 in0.0 mm 0.00 in/hr0.0 mm/hr 0.00 in0.0 mm
01:30 AM 41.8°F5.4°C 34.5°F1.4°C 75% Calm Calm -- 30.08 in1018.6 mb 0.00 in0.0 mm 0.00 in/hr0.0 mm/hr 0.00 in0.0 mm
01:20 AM 41.8°F5.4°C 34.5°F1.4°C 75% Calm Calm -- 30.07 in1018.3 mb 0.00 in0.0 mm 0.00 in/hr0.0 mm/hr 0.00 in0.0 mm
01:10 AM 41.9°F5.5°C 35.2°F1.8°C 77% Calm Calm -- 30.06 in1017.9 mb 0.00 in0.0 mm 0.00 in/hr0.0 mm/hr 0.00 in0.0 mm
01:00 AM 42.1°F5.6°C 34.1°F1.2°C 73% Calm Calm -- 30.06 in1017.9 mb 0.00 in0.0 mm 0.00 in/hr0.0 mm/hr 0.00 in0.0 mm
12:50 AM 42.4°F5.8°C 34.0°F1.1°C 72% Calm Calm -- 30.06 in1017.9 mb 0.00 in0.0 mm 0.00 in/hr0.0 mm/hr 0.00 in0.0 mm
12:40 AM 42.5°F5.8°C 34.8°F1.6°C 74% Calm Calm -- 30.06 in1017.9 mb 0.00 in0.0 mm 0.00 in/hr0.0 mm/hr 0.00 in0.0 mm
12:30 AM 42.5°F5.8°C 33.4°F0.8°C 70% Calm Calm -- 30.06 in1017.9 mb 0.00 in0.0 mm 0.00 in/hr0.0 mm/hr 0.00 in0.0 mm
12:20 AM 42.5°F5.8°C 34.4°F1.3°C 73% Calm Calm -- 30.06 in1017.9 mb 0.00 in0.0 mm 0.00 in/hr0.0 mm/hr 0.00 in0.0 mm
12:10 AM 42.6°F5.9°C 33.5°F0.8°C 70% Calm Calm -- 30.06 in1017.9 mb 0.00 in0.0 mm 0.00 in/hr0.0 mm/hr 0.00 in0.0 mm
12:00 AM 42.4°F5.8°C 33.7°F0.9°C 71% Calm Calm -- 30.06 in1017.9 mb 0.00 in0.0 mm 0.00 in/hr0.0 mm/hr 0.00 in0.0 mm